Time;durP1;ratioP1;P1;durP2;ratioP2;P2;SDS_P1;SDS_P2;PMS_P1;PMS_P2;Temp;Humidity;BMP_temperature;BMP_pressure;BME280_temperature;BME280_humidity;BME280_pressure;Samples;Min_cycle;Max_cycle;Signal;HPM_P1;HPM_P2
2023/03/04 00:00:28;;;;;;;57.65;31.02;;;;;;;4.29;75.50;102105.81;4919540;29;20052;-67
2023/03/04 00:02:56;;;;;;;52.63;30.08;;;;;;;4.11;74.95;102100.50;4920669;29;20517;-66
2023/03/04 00:05:23;;;;;;;54.55;30.05;;;;;;;4.14;75.62;102109.03;4919092;29;20056;-66
2023/03/04 00:07:50;;;;;;;55.40;30.15;;;;;;;4.16;75.64;102109.63;4919483;29;20056;-67
2023/03/04 00:10:18;;;;;;;55.15;32.20;;;;;;;4.18;75.26;102107.50;4921287;29;20075;-66
2023/03/04 00:12:45;;;;;;;52.15;29.70;;;;;;;4.24;74.94;102106.53;4935799;29;20044;-67
2023/03/04 00:15:13;;;;;;;58.72;30.77;;;;;;;4.06;75.46;102109.38;4938385;29;20066;-65
2023/03/04 00:17:41;;;;;;;54.35;30.67;;;;;;;3.95;75.70;102118.41;4922068;29;20511;-65
2023/03/04 00:20:08;;;;;;;53.72;30.45;;;;;;;3.88;76.41;102112.22;4920957;29;20068;-66
2023/03/04 00:22:36;;;;;;;55.25;30.48;;;;;;;3.91;75.65;102119.91;4938432;29;20054;-67
2023/03/04 00:25:04;;;;;;;56.08;30.45;;;;;;;3.88;76.50;102116.84;4922804;29;20067;-67
2023/03/04 00:27:31;;;;;;;56.13;32.53;;;;;;;3.93;76.50;102112.34;4938799;29;20497;-66
2023/03/04 00:29:59;;;;;;;58.00;31.23;;;;;;;4.00;76.25;102109.50;4923273;29;20066;-66
2023/03/04 00:32:26;;;;;;;61.45;30.48;;;;;;;4.13;75.38;102120.19;4911359;29;20048;-66
2023/03/04 00:34:54;;;;;;;55.38;30.70;;;;;;;4.01;76.38;102117.44;4903758;29;20067;-66
2023/03/04 00:37:21;;;;;;;56.30;30.63;;;;;;;4.20;75.21;102115.44;4931316;29;20052;-65
2023/03/04 00:39:49;;;;;;;57.40;30.83;;;;;;;4.43;74.90;102118.13;4939916;29;20059;-65
2023/03/04 00:42:17;;;;;;;58.70;31.92;;;;;;;4.17;75.11;102116.72;4938281;29;20065;-66
2023/03/04 00:44:50;;;;;;;60.13;30.08;;;;;;;3.99;75.70;102119.56;4927862;29;20515;-66
2023/03/04 00:47:18;;;;;;;57.60;31.13;;;;;;;4.28;75.72;102118.63;4915000;29;20060;-67
2023/03/04 00:49:45;;;;;;;63.78;34.45;;;;;;;3.99;75.83;102125.00;4885118;29;20055;-67
2023/03/04 00:52:13;;;;;;;60.10;33.63;;;;;;;3.71;76.80;102116.69;4914918;29;20055;-66
2023/03/04 00:54:41;;;;;;;57.67;32.08;;;;;;;3.72;77.51;102122.97;4903356;29;20048;-66
2023/03/04 00:57:08;;;;;;;60.28;32.97;;;;;;;3.57;78.02;102131.59;4919202;29;20048;-66
2023/03/04 00:59:39;;;;;;;57.50;34.05;;;;;;;3.75;77.52;102128.78;4903444;29;20392;-66
2023/03/04 01:02:08;;;;;;;63.47;34.95;;;;;;;3.76;77.16;102125.00;4929355;29;20403;-66
2023/03/04 01:04:37;;;;;;;57.90;34.45;;;;;;;3.79;77.47;102131.88;4937963;29;20059;-67
2023/03/04 01:07:05;;;;;;;59.70;36.05;;;;;;;3.75;77.74;102128.78;4924542;29;20063;-66
2023/03/04 01:09:33;;;;;;;65.07;35.53;;;;;;;3.90;76.93;102139.25;4903663;29;20055;-66
2023/03/04 01:12:02;;;;;;;65.22;36.28;;;;;;;3.56;77.75;102132.63;4917803;29;20051;-68
2023/03/04 01:14:32;;;;;;;63.70;36.70;;;;;;;3.62;78.23;102125.44;4920215;29;20055;-67
2023/03/04 01:16:59;;;;;;;;;;;;;;;3.79;77.86;102127.25;4919244;29;20071;-66
2023/03/04 01:19:32;;;;;;;62.47;34.78;;;;;;;3.63;78.07;102129.84;4919095;29;19923;-67
2023/03/04 01:21:59;;;;;;;63.78;37.72;;;;;;;3.59;78.40;102128.63;4917289;29;20396;-66
2023/03/04 01:24:28;;;;;;;67.20;37.67;;;;;;;3.58;78.16;102130.50;4903326;29;20056;-67
2023/03/04 01:26:56;;;;;;;63.90;37.78;;;;;;;3.44;78.95;102126.31;4912717;29;20492;-66
2023/03/04 01:29:24;;;;;;;62.88;37.55;;;;;;;3.54;78.62;102123.88;4918849;29;20756;-66
2023/03/04 01:31:51;;;;;;;65.25;37.35;;;;;;;3.47;78.76;102123.97;4903423;29;20052;-66
2023/03/04 01:34:19;;;;;;;67.65;37.78;;;;;;;3.42;79.06;102128.44;4939147;29;20055;-65
2023/03/04 01:36:47;;;;;;;63.97;37.10;;;;;;;3.29;79.89;102117.75;4936761;29;20059;-65
2023/03/04 01:39:14;;;;;;;65.50;38.22;;;;;;;3.31;79.72;102119.19;4938361;29;20055;-66
2023/03/04 01:41:42;;;;;;;64.20;37.08;;;;;;;3.62;78.46;102115.38;4920258;29;20051;-66
2023/03/04 01:44:10;;;;;;;63.58;36.72;;;;;;;3.54;78.48;102112.97;4935669;29;20063;-66
2023/03/04 01:46:41;;;;;;;63.50;36.20;;;;;;;3.62;78.58;102114.53;4913599;29;20049;-65
2023/03/04 01:49:11;;;;;;;63.10;36.10;;;;;;;3.44;78.76;102107.25;4899876;29;20084;-65
2023/03/04 01:51:38;;;;;;;66.10;37.00;;;;;;;3.55;78.65;102103.75;4920748;29;20071;-66
2023/03/04 01:54:05;;;;;;;64.93;36.75;;;;;;;3.57;78.24;102104.34;4907821;29;20056;-66
2023/03/04 01:56:37;;;;;;;60.33;36.28;;;;;;;3.60;78.15;102094.88;4921082;29;20060;-66
2023/03/04 01:59:17;;;;;;;64.22;36.53;;;;;;;3.35;78.52;102101.31;4906971;29;20056;-65
2023/03/04 02:01:49;;;;;;;57.50;35.15;;;;;;;3.47;78.98;102104.06;4933084;29;20440;-66
2023/03/04 02:04:22;;;;;;;60.13;35.28;;;;;;;3.49;78.08;102101.94;4942915;29;20067;-65
2023/03/04 02:06:51;;;;;;;62.63;35.42;;;;;;;3.25;79.46;102092.06;4908038;29;20407;-65
2023/03/04 02:09:19;;;;;;;58.20;36.35;;;;;;;3.41;79.06;102092.25;4925760;29;20471;-65
2023/03/04 02:11:49;;;;;;;60.90;35.42;;;;;;;3.40;79.26;102096.00;4923641;29;20051;-65
2023/03/04 02:14:18;;;;;;;57.95;35.70;;;;;;;3.40;79.29;102101.44;4925264;29;20063;-65
2023/03/04 02:16:47;;;;;;;63.38;35.60;;;;;;;3.58;78.61;102092.38;4935587;29;20055;-65
2023/03/04 02:19:42;;;;;;;58.55;34.47;;;;;;;3.41;78.78;102105.00;4922137;29;20048;-65
2023/03/04 02:22:09;;;;;;;57.95;34.67;;;;;;;3.31;79.17;102108.28;4905798;29;20044;-65
2023/03/04 02:24:42;;;;;;;57.63;34.28;;;;;;;3.23;79.97;102103.19;4904435;29;20060;-65
2023/03/04 02:27:09;;;;;;;55.58;33.53;;;;;;;3.23;79.70;102100.44;4903178;29;20068;-66
2023/03/04 02:29:37;;;;;;;55.83;34.47;;;;;;;3.27;79.57;102107.09;4887779;29;20071;-65
2023/03/04 02:32:05;;;;;;;57.28;35.05;;;;;;;3.49;78.80;102101.94;4914898;29;20044;-66
2023/03/04 02:34:34;;;;;;;55.50;33.15;;;;;;;3.12;79.94;102100.41;4903189;29;20068;-65
2023/03/04 02:37:02;;;;;;;54.42;33.10;;;;;;;3.33;79.69;102102.59;4906603;29;20052;-65
2023/03/04 02:39:44;;;;;;;54.63;33.28;;;;;;;3.47;79.33;102088.56;4918666;29;20056;-66
2023/03/04 02:42:12;;;;;;;55.00;33.85;;;;;;;3.40;79.04;102096.00;4898499;29;20041;-65
2023/03/04 02:44:42;;;;;;;55.30;33.65;;;;;;;3.26;79.60;102099.97;4891408;29;20053;-66
2023/03/04 02:47:12;;;;;;;54.08;34.53;;;;;;;3.28;79.70;102095.13;4916668;29;20056;-67
2023/03/04 02:49:40;;;;;;;58.95;35.20;;;;;;;3.17;80.10;102090.47;4906147;29;20056;-65
2023/03/04 02:52:19;;;;;;;53.72;33.83;;;;;;;3.29;79.69;102087.81;4897683;29;20412;-66
2023/03/04 02:54:46;;;;;;;56.15;34.30;;;;;;;3.52;78.88;102082.44;4918533;29;20072;-65
2023/03/04 02:57:14;;;;;;;55.63;34.55;;;;;;;3.43;78.84;102087.34;4914880;29;20510;-66
2023/03/04 02:59:45;;;;;;;51.63;34.47;;;;;;;3.35;79.26;102081.41;4905189;29;20048;-65
2023/03/04 03:02:17;;;;;;;62.72;35.95;;;;;;;3.22;80.05;102073.47;4916227;29;20385;-66
2023/03/04 03:04:45;;;;;;;56.17;35.63;;;;;;;3.15;80.30;102075.44;4902170;29;20057;-66
2023/03/04 03:07:15;;;;;;;56.70;35.97;;;;;;;3.10;80.80;102075.31;4902046;29;20064;-66
2023/03/04 03:09:42;;;;;;;55.28;36.03;;;;;;;3.22;80.11;102076.19;4918053;29;20505;-67
2023/03/04 03:12:10;;;;;;;56.70;36.88;;;;;;;3.08;80.44;102074.72;4912631;29;20052;-66
2023/03/04 03:14:37;;;;;;;58.20;35.88;;;;;;;3.09;80.54;102070.91;4918210;29;20045;-66
2023/03/04 03:17:07;;;;;;;60.97;37.97;;;;;;;3.13;80.23;102066.69;4916729;29;20052;-66
2023/03/04 03:19:34;;;;;;;59.78;37.08;;;;;;;3.12;80.16;102065.84;4918015;29;20103;-66
2023/03/04 03:22:05;;;;;;;57.25;35.72;;;;;;;3.20;80.00;102065.53;4901660;29;20071;-66
2023/03/04 03:24:32;;;;;;;63.50;38.13;;;;;;;3.37;79.82;102063.81;4902399;29;20063;-65
2023/03/04 03:27:00;;;;;;;59.58;37.03;;;;;;;3.32;79.53;102062.84;4901706;29;20060;-65
2023/03/04 03:29:28;;;;;;;59.20;36.17;;;;;;;3.56;78.73;102067.25;4902121;29;20425;-66
2023/03/04 03:31:55;;;;;;;61.13;37.75;;;;;;;3.50;78.05;102053.75;4913072;29;20523;-66
2023/03/04 03:34:23;;;;;;;57.28;37.03;;;;;;;3.15;78.80;102070.00;4922190;29;20056;-65
2023/03/04 03:36:51;;;;;;;60.67;37.78;;;;;;;3.34;79.60;102063.44;4919189;29;20502;-65
2023/03/04 03:39:18;;;;;;;57.22;36.33;;;;;;;3.50;78.36;102067.38;4920791;29;20066;-66
2023/03/04 03:41:46;;;;;;;64.80;37.92;;;;;;;3.28;78.52;102057.03;4915790;29;20057;-66
2023/03/04 03:44:13;;;;;;;64.70;38.10;;;;;;;3.52;78.24;102060.66;4917407;29;20496;-66
2023/03/04 03:46:41;;;;;;;58.90;37.70;;;;;;;3.55;77.71;102065.63;4905529;29;20060;-66
2023/03/04 03:49:08;;;;;;;60.95;38.15;;;;;;;3.46;78.22;102072.47;4903303;29;20413;-66
2023/03/04 03:51:35;;;;;;;63.22;37.63;;;;;;;3.19;78.34;102073.94;4901089;29;20414;-65
2023/03/04 03:54:03;;;;;;;61.42;37.97;;;;;;;2.97;79.66;102078.22;4901591;29;20059;-66
2023/03/04 03:56:31;;;;;;;66.13;38.10;;;;;;;3.21;79.12;102078.06;4901017;29;20063;-66
2023/03/04 03:58:59;;;;;;;60.17;36.72;;;;;;;3.20;79.21;102075.59;4898255;29;20057;-66
2023/03/04 04:01:26;;;;;;;56.72;35.55;;;;;;;3.13;79.07;102069.41;4890715;29;20067;-66
2023/03/04 04:03:53;;;;;;;62.60;38.05;;;;;;;3.10;79.17;102078.84;4901181;29;20087;-66
2023/03/04 04:06:21;;;;;;;60.40;35.28;;;;;;;3.22;78.79;102079.75;4915572;29;20064;-66
2023/03/04 04:08:48;;;;;;;55.67;34.58;;;;;;;3.31;78.04;102075.59;4902412;29;20057;-65
2023/03/04 04:11:16;;;;;;;57.72;34.55;;;;;;;3.08;79.27;102083.72;4915131;29;20140;-65
2023/03/04 04:13:43;;;;;;;53.72;34.72;;;;;;;3.13;78.96;102091.19;4902237;29;20057;-65
2023/03/04 04:16:11;;;;;;;52.17;33.75;;;;;;;3.22;78.56;102082.47;4898630;29;20056;-66
2023/03/04 04:18:38;;;;;;;54.53;33.85;;;;;;;3.14;77.71;102082.78;4902340;29;20060;-66
2023/03/04 04:21:06;;;;;;;58.47;34.85;;;;;;;3.42;77.45;102084.88;4898912;29;20052;-65
2023/03/04 04:23:34;;;;;;;58.50;33.90;;;;;;;3.56;77.07;102089.06;4902133;29;20052;-66
2023/03/04 04:26:01;;;;;;;52.38;32.88;;;;;;;3.30;76.81;102089.47;4900984;29;20060;-66
2023/03/04 04:28:29;;;;;;;53.85;34.67;;;;;;;3.36;77.28;102089.34;4902671;29;20053;-66
2023/03/04 04:30:56;;;;;;;53.72;34.25;;;;;;;3.41;76.73;102086.78;4900526;29;20060;-66
2023/03/04 04:33:24;;;;;;;55.03;33.17;;;;;;;3.12;77.65;102084.91;4915920;29;20048;-65
2023/03/04 04:35:51;;;;;;;52.58;32.72;;;;;;;3.27;77.28;102081.75;4916168;29;20410;-65
2023/03/04 04:38:19;;;;;;;52.67;33.08;;;;;;;3.30;76.75;102079.41;4901990;29;20071;-65
2023/03/04 04:40:46;;;;;;;54.45;32.00;;;;;;;3.36;76.43;102085.81;4887979;29;20080;-65
2023/03/04 04:43:14;;;;;;;48.72;31.55;;;;;;;3.20;76.89;102100.09;4920816;29;20052;-65
2023/03/04 04:45:41;;;;;;;47.47;31.45;;;;;;;3.07;77.14;102090.22;4904793;29;20052;-66
2023/03/04 04:48:08;;;;;;;52.20;32.80;;;;;;;3.05;77.10;102095.03;4900260;29;20115;-67
2023/03/04 04:50:36;;;;;;;57.00;33.80;;;;;;;2.97;77.25;102094.53;4900525;29;20543;-66
2023/03/04 04:53:03;;;;;;;54.88;33.53;;;;;;;2.98;77.72;102101.66;4900286;29;20060;-66
2023/03/04 04:55:30;;;;;;;52.13;33.28;;;;;;;3.10;77.50;102105.25;4900688;29;20056;-66
2023/03/04 04:57:58;;;;;;;53.88;31.38;;;;;;;3.41;76.50;102105.00;4899465;29;20060;-66
2023/03/04 05:00:25;;;;;;;48.63;31.83;;;;;;;3.38;75.91;102106.28;4901232;29;20061;-67
2023/03/04 05:02:53;;;;;;;52.03;33.50;;;;;;;3.10;76.65;102108.78;4918111;29;20048;-66
2023/03/04 05:05:20;;;;;;;52.45;33.13;;;;;;;3.30;76.23;102113.97;4918329;29;20064;-66
2023/03/04 05:07:48;;;;;;;50.40;33.13;;;;;;;3.27;75.92;102114.44;4919431;29;20044;-65
2023/03/04 05:10:15;;;;;;;51.65;31.90;;;;;;;3.31;75.22;102113.72;4920114;29;20083;-64
2023/03/04 05:12:43;;;;;;;51.70;33.40;;;;;;;3.31;75.66;102121.91;4900652;29;20057;-65
2023/03/04 05:15:11;;;;;;;52.33;32.95;;;;;;;3.37;75.53;102125.59;4915847;29;20051;-65
2023/03/04 05:17:38;;;;;;;50.08;31.35;;;;;;;3.39;74.63;102123.47;4900213;29;20392;-65
2023/03/04 05:20:07;;;;;;;48.17;31.85;;;;;;;2.97;75.91;102128.03;4894960;29;20078;-65
2023/03/04 05:22:35;;;;;;;49.58;33.05;;;;;;;3.07;76.29;102125.59;4920449;29;20071;-65
2023/03/04 05:25:02;;;;;;;55.53;33.08;;;;;;;2.93;76.84;102126.81;4921748;29;20058;-65
2023/03/04 05:27:30;;;;;;;52.92;32.83;;;;;;;2.87;77.03;102133.19;4922039;29;20074;-66
2023/03/04 05:30:00;;;;;;;53.58;32.92;;;;;;;3.06;76.70;102128.53;4920125;29;20060;-67
2023/03/04 05:32:27;;;;;;;50.00;31.92;;;;;;;3.35;75.02;102131.28;4925829;29;20074;-65
2023/03/04 05:34:55;;;;;;;49.67;32.03;;;;;;;3.00;75.44;102127.56;4937779;29;20053;-65
2023/03/04 05:37:22;;;;;;;50.47;31.77;;;;;;;2.98;75.99;102126.16;4923703;29;20067;-66
2023/03/04 05:39:50;;;;;;;50.95;31.85;;;;;;;2.99;75.87;102127.81;4920014;29;20526;-66
2023/03/04 05:42:17;;;;;;;48.35;32.30;;;;;;;2.76;76.24;102127.66;4932818;29;20056;-66
2023/03/04 05:44:44;;;;;;;51.47;31.98;;;;;;;2.74;76.13;102125.19;4931837;29;20071;-66
2023/03/04 05:47:13;;;;;;;55.45;32.80;;;;;;;2.76;76.36;102123.06;4917677;29;20135;-66
2023/03/04 05:49:41;;;;;;;48.08;31.15;;;;;;;2.94;75.85;102124.94;4922051;29;20058;-65
2023/03/04 05:52:09;;;;;;;53.13;31.58;;;;;;;3.03;75.24;102126.28;4935700;29;20648;-66
2023/03/04 05:54:36;;;;;;;48.67;32.15;;;;;;;3.09;75.33;102128.91;4939107;29;20055;-65
2023/03/04 05:57:04;;;;;;;48.70;31.63;;;;;;;3.33;74.46;102129.84;4937644;29;20067;-71
2023/03/04 05:59:31;;;;;;;54.45;32.83;;;;;;;3.41;73.79;102133.09;4925396;29;20412;-72
2023/03/04 06:01:58;;;;;;;51.15;31.60;;;;;;;3.09;74.04;102134.38;4919615;29;20059;-72
2023/03/04 06:04:26;;;;;;;48.67;31.15;;;;;;;3.10;74.12;102133.28;4920731;29;20056;-72
2023/03/04 06:06:53;;;;;;;53.67;32.60;;;;;;;3.08;74.55;102126.44;4912452;29;20057;-72
2023/03/04 06:09:20;;;;;;;56.72;32.38;;;;;;;3.12;74.52;102139.34;4919543;29;20055;-74
2023/03/04 06:11:48;;;;;;;51.08;32.17;;;;;;;3.13;73.92;102143.75;4917739;29;20051;-71
2023/03/04 06:14:15;;;;;;;50.90;31.77;;;;;;;3.15;74.36;102141.63;4920919;29;20067;-71
2023/03/04 06:16:42;;;;;;;56.08;31.60;;;;;;;3.22;74.05;102144.25;4920984;29;20055;-73
2023/03/04 06:19:10;;;;;;;50.22;32.00;;;;;;;3.33;73.40;102141.56;4939513;29;20055;-73
2023/03/04 06:21:38;;;;;;;53.88;32.65;;;;;;;3.21;73.77;102145.28;4937999;29;20055;-73
2023/03/04 06:24:05;;;;;;;49.80;31.35;;;;;;;3.38;73.41;102146.34;4906817;29;20055;-73
2023/03/04 06:26:33;;;;;;;53.97;32.42;;;;;;;3.18;73.63;102152.03;4922222;29;20043;-72
2023/03/04 06:29:01;;;;;;;48.20;31.00;;;;;;;3.25;73.52;102150.06;4939654;29;20043;-71
2023/03/04 06:31:28;;;;;;;52.40;31.75;;;;;;;3.50;73.23;102154.53;4936606;29;20048;-72
2023/03/04 06:33:56;;;;;;;49.13;30.67;;;;;;;3.11;73.60;102154.03;4919195;29;20071;-73
2023/03/04 06:36:23;;;;;;;48.28;29.38;;;;;;;3.38;73.40;102149.06;4919390;29;20052;-72
2023/03/04 06:38:50;;;;;;;47.95;29.35;;;;;;;3.59;72.59;102155.88;4920304;29;20060;-70
2023/03/04 06:41:18;;;;;;;48.38;29.23;;;;;;;3.54;71.74;102159.28;4912895;29;20070;-71
2023/03/04 06:43:45;;;;;;;46.67;29.25;;;;;;;3.60;71.81;102162.97;4941144;29;20059;-71
2023/03/04 06:46:13;;;;;;;50.50;29.67;;;;;;;3.65;72.18;102161.22;4930023;29;20055;-71
2023/03/04 06:48:40;;;;;;;47.53;28.50;;;;;;;3.53;71.70;102173.13;4943599;29;20052;-73
2023/03/04 06:51:09;;;;;;;45.70;28.20;;;;;;;3.38;72.37;102159.94;4940443;29;20055;-73
2023/03/04 06:53:37;;;;;;;46.47;28.13;;;;;;;3.47;72.14;102165.91;4925568;29;20495;-73
2023/03/04 06:56:06;;;;;;;41.28;27.27;;;;;;;3.57;71.98;102169.72;4924145;29;20078;-71
2023/03/04 06:58:33;;;;;;;45.05;26.23;;;;;;;3.55;71.89;102165.56;4919359;29;20052;-73
2023/03/04 07:01:16;;;;;;;61.05;35.13;;;;;;;3.54;72.29;102174.81;4926318;29;20056;-72
2023/03/04 07:03:44;;;;;;;127.63;65.07;;;;;;;3.99;70.86;102174.06;4942457;29;20047;-72
2023/03/04 07:06:13;;;;;;;44.25;26.95;;;;;;;4.02;70.26;102173.63;4935587;29;20056;-72
2023/03/04 07:08:41;;;;;;;43.57;26.73;;;;;;;4.06;69.70;102169.34;4923322;29;20074;-72
2023/03/04 07:11:09;;;;;;;43.83;26.60;;;;;;;3.88;70.36;102171.34;4926909;29;20296;-71
2023/03/04 07:13:37;;;;;;;43.35;26.33;;;;;;;3.84;70.57;102176.44;4940946;29;20530;-72
2023/03/04 07:16:13;;;;;;;43.05;26.48;;;;;;;3.75;70.79;102172.38;4935377;29;20052;-72
2023/03/04 07:18:41;;;;;;;42.65;26.23;;;;;;;3.64;71.21;102177.78;4924061;29;20048;-73
2023/03/04 07:21:08;;;;;;;47.90;28.05;;;;;;;3.90;70.57;102180.13;4921052;29;20401;-71
2023/03/04 07:23:36;;;;;;;41.75;26.05;;;;;;;3.81;70.72;102190.53;4905933;29;20067;-72
2023/03/04 07:26:04;;;;;;;43.75;26.08;;;;;;;3.90;70.64;102180.97;4911516;29;20048;-72
2023/03/04 07:28:32;;;;;;;42.05;25.33;;;;;;;3.96;69.98;102182.72;4941639;29;20047;-71
2023/03/04 07:31:19;;;;;;;47.40;26.52;;;;;;;3.96;69.87;102185.47;4920476;29;20071;-72
2023/03/04 07:33:47;;;;;;;45.95;25.83;;;;;;;3.86;70.23;102185.22;4938239;29;20067;-73
2023/03/04 07:36:14;;;;;;;41.83;26.08;;;;;;;3.79;70.07;102191.81;4917827;29;20048;-72
2023/03/04 07:38:44;;;;;;;48.60;26.20;;;;;;;3.66;70.64;102201.00;4889452;29;20058;-71
2023/03/04 07:41:12;;;;;;;42.00;24.90;;;;;;;3.63;70.63;102195.22;4919619;29;20047;-73
2023/03/04 07:43:40;;;;;;;39.00;25.80;;;;;;;3.65;71.05;102198.53;4921531;29;20056;-72
2023/03/04 07:46:08;;;;;;;40.78;26.02;;;;;;;3.80;70.50;102197.03;4928425;29;20048;-74
2023/03/04 07:48:36;;;;;;;40.83;25.98;;;;;;;3.84;70.25;102200.97;4924252;29;20062;-66
2023/03/04 07:51:13;;;;;;;46.22;26.08;;;;;;;4.01;69.50;102198.41;4914615;29;20060;-66
2023/03/04 07:53:44;;;;;;;52.75;26.73;;;;;;;3.74;70.43;102203.41;4922719;29;20063;-73
2023/03/04 07:56:15;;;;;;;45.13;26.60;;;;;;;3.96;70.16;102204.53;4910709;29;20055;-72
2023/03/04 07:58:43;;;;;;;51.40;27.17;;;;;;;4.03;69.71;102208.00;4932302;29;20059;-72
2023/03/04 08:01:15;;;;;;;47.03;28.23;;;;;;;4.08;69.67;102210.03;4887932;29;20550;-66
2023/03/04 08:03:42;;;;;;;44.28;27.13;;;;;;;4.37;69.17;102209.13;4922179;29;20311;-67
2023/03/04 08:06:13;;;;;;;44.65;27.30;;;;;;;4.31;69.00;102210.88;4918973;29;20051;-71
2023/03/04 08:08:41;;;;;;;47.03;28.58;;;;;;;4.20;69.38;102213.63;4900728;29;20052;-65
2023/03/04 08:11:14;;;;;;;47.80;28.10;;;;;;;4.43;68.91;102213.63;4901898;29;20059;-67
2023/03/04 08:13:42;;;;;;;48.50;28.65;;;;;;;4.32;68.84;102217.19;4920430;29;20044;-64
2023/03/04 08:16:14;;;;;;;49.80;28.88;;;;;;;4.37;68.88;102220.88;4920070;29;20051;-65
2023/03/04 08:18:47;;;;;;;41.05;25.88;;;;;;;4.28;68.75;102221.44;4921633;29;20059;-73
2023/03/04 08:21:18;;;;;;;38.42;25.40;;;;;;;4.25;69.02;102217.28;4874830;29;20049;-66
2023/03/04 08:23:45;;;;;;;43.17;24.17;;;;;;;4.22;68.57;102225.13;4888255;29;20052;-65
2023/03/04 08:26:15;;;;;;;50.55;26.25;;;;;;;4.40;68.85;102225.84;4882544;29;20049;-65
2023/03/04 08:28:44;;;;;;;45.83;24.15;;;;;;;4.42;68.50;102223.72;4855187;29;20057;-72
2023/03/04 08:31:13;;;;;;;44.00;25.08;;;;;;;4.52;68.50;102221.22;4887697;29;20056;-70
2023/03/04 08:33:42;;;;;;;50.97;25.48;;;;;;;4.74;68.02;102220.63;4899280;29;20065;-72
2023/03/04 08:36:09;;;;;;;46.90;29.05;;;;;;;4.21;68.96;102227.00;4875004;29;20511;-71
2023/03/04 08:38:37;;;;;;;46.90;28.88;;;;;;;4.25;69.36;102224.66;4883048;29;20147;-73
2023/03/04 08:41:05;;;;;;;49.63;29.63;;;;;;;4.06;70.52;102233.97;4897206;29;20386;-71
2023/03/04 08:43:33;;;;;;;48.08;30.30;;;;;;;4.11;70.48;102234.94;4867622;29;20057;-72
2023/03/04 08:46:01;;;;;;;48.00;30.08;;;;;;;4.34;69.88;102234.16;4896551;29;20393;-72
2023/03/04 08:48:28;;;;;;;47.42;28.48;;;;;;;4.08;70.10;102227.19;4882137;29;20057;-71
2023/03/04 08:50:56;;;;;;;46.60;29.95;;;;;;;4.01;71.03;102236.56;4881528;29;20053;-70
2023/03/04 08:53:24;;;;;;;46.30;28.55;;;;;;;4.21;70.86;102231.63;4866545;29;20056;-63
2023/03/04 08:55:52;;;;;;;50.40;29.33;;;;;;;4.64;69.01;102239.50;4895283;29;20378;-64
2023/03/04 08:58:19;;;;;;;46.65;27.63;;;;;;;4.83;67.63;102239.13;4897448;29;20747;-64
2023/03/04 09:00:48;;;;;;;42.42;25.27;;;;;;;4.74;67.21;102234.28;4896106;29;20060;-65
2023/03/04 09:03:18;;;;;;;51.35;27.90;;;;;;;5.05;66.35;102244.81;4861786;29;20053;-66
2023/03/04 09:05:46;;;;;;;;;;;;;;;4.88;66.07;102246.63;4868179;29;20049;-66
2023/03/04 09:08:17;;;;;;;41.28;21.58;;;;;;;4.64;66.18;102239.50;4882812;29;19924;-64
2023/03/04 09:10:45;;;;;;;40.17;23.17;;;;;;;4.98;65.78;102236.75;4881684;29;20061;-65
2023/03/04 09:13:16;;;;;;;45.53;23.75;;;;;;;5.26;65.05;102236.81;4883052;29;20061;-66
2023/03/04 09:15:48;;;;;;;39.92;22.83;;;;;;;5.06;65.00;102235.53;4878050;29;20044;-65
2023/03/04 09:18:17;;;;;;;37.28;20.02;;;;;;;4.90;64.95;102244.47;4881760;29;20053;-65
2023/03/04 09:20:45;;;;;;;35.08;19.70;;;;;;;4.99;65.42;102252.06;4910390;29;20064;-65
2023/03/04 09:23:12;;;;;;;38.33;19.45;;;;;;;5.05;65.43;102244.81;4916896;29;20799;-67
2023/03/04 09:25:41;;;;;;;37.78;18.40;;;;;;;5.01;65.10;102249.06;4918479;29;20869;-65
2023/03/04 09:28:09;;;;;;;39.03;19.17;;;;;;;5.21;64.26;102260.47;4921711;29;20056;-65
2023/03/04 09:30:37;;;;;;;40.45;19.23;;;;;;;5.13;65.22;102258.09;4900662;29;20056;-64
2023/03/04 09:33:05;;;;;;;39.67;18.95;;;;;;;5.31;64.09;102245.13;4928110;29;20054;-65
2023/03/04 09:35:32;;;;;;;40.10;19.13;;;;;;;5.34;63.89;102244.63;4918091;29;20044;-65
2023/03/04 09:37:59;;;;;;;41.33;20.95;;;;;;;5.24;64.24;102243.59;4916847;29;20064;-64
2023/03/04 09:40:40;;;;;;;39.92;21.10;;;;;;;5.32;64.86;102244.03;4918211;29;20062;-64
2023/03/04 09:43:18;;;;;;;36.97;20.52;;;;;;;5.50;64.04;102248.50;4903056;29;20068;-65
2023/03/04 09:45:49;;;;;;;38.28;19.95;;;;;;;5.40;63.62;102253.75;4917712;29;20056;-65
2023/03/04 09:48:20;;;;;;;37.70;19.17;;;;;;;5.26;64.42;102244.19;4919186;29;20052;-64
2023/03/04 09:51:08;;;;;;;35.75;19.85;;;;;;;5.29;64.17;102247.25;4900279;29;20412;-66
2023/03/04 09:53:54;;;;;;;40.33;18.98;;;;;;;5.31;64.01;102256.03;4907950;29;20067;-65
2023/03/04 09:56:21;;;;;;;43.13;20.23;;;;;;;5.24;64.21;102244.41;4908532;29;20056;-64
2023/03/04 09:59:12;;;;;;;48.53;20.77;;;;;;;5.51;64.01;102258.34;4916259;29;20055;-65
2023/03/04 10:01:52;;;;;;;43.70;21.30;;;;;;;5.30;64.53;102245.38;4905755;29;20051;-65
2023/03/04 10:04:40;;;;;;;47.78;21.42;;;;;;;5.29;64.27;102246.41;4902549;29;20064;-64
2023/03/04 10:07:17;;;;;;;39.80;21.17;;;;;;;5.42;64.05;102246.16;4912782;29;20067;-64
2023/03/04 10:10:01;;;;;;;44.00;21.58;;;;;;;5.40;64.13;102253.75;4901882;29;20056;-64
2023/03/04 10:12:30;;;;;;;42.00;21.13;;;;;;;5.43;63.92;102248.66;4917895;29;20389;-72
2023/03/04 10:15:20;;;;;;;47.05;23.58;;;;;;;5.52;63.66;102251.81;4903978;29;20060;-70
2023/03/04 10:17:52;;;;;;;44.70;22.77;;;;;;;5.57;63.94;102258.22;4921899;29;20062;-71
2023/03/04 10:20:24;;;;;;;42.00;21.38;;;;;;;5.77;63.21;102252.31;4920690;29;20071;-71
2023/03/04 10:23:11;;;;;;;47.28;22.73;;;;;;;5.53;63.68;102254.31;4933370;29;20056;-73
2023/03/04 10:25:44;;;;;;;42.05;22.65;;;;;;;5.32;64.28;102251.38;4922627;29;20048;-71
2023/03/04 10:28:17;;;;;;;47.95;22.85;;;;;;;5.41;64.33;102245.31;4922918;29;20044;-74
2023/03/04 10:31:06;;;;;;;50.30;23.60;;;;;;;5.32;64.96;102245.94;4916056;29;20059;-63
2023/03/04 10:33:38;;;;;;;48.80;23.23;;;;;;;5.49;64.50;102242.19;4919346;29;20064;-64
2023/03/04 10:36:21;;;;;;;45.55;22.20;;;;;;;5.65;63.73;102235.97;4918501;29;20048;-65
2023/03/04 10:38:56;;;;;;;46.33;23.65;;;;;;;5.39;64.81;102233.78;4919326;29;20052;-65
2023/03/04 10:41:26;;;;;;;41.85;23.23;;;;;;;5.52;64.52;102232.69;4913966;29;20052;-64
2023/03/04 10:44:02;;;;;;;42.55;24.38;;;;;;;5.60;64.29;102224.09;4910446;29;20408;-71
2023/03/04 10:46:30;;;;;;;41.42;22.83;;;;;;;5.70;63.69;102221.59;4921732;29;20044;-71
2023/03/04 10:48:58;;;;;;;40.28;22.92;;;;;;;5.66;64.01;102212.19;4921755;29;20063;-71
2023/03/04 10:51:28;;;;;;;41.45;22.55;;;;;;;5.51;64.16;102220.09;4909728;29;20062;-71
2023/03/04 10:54:29;;;;;;;42.88;21.85;;;;;;;5.73;64.41;102215.63;4889398;29;20063;-73
2023/03/04 10:57:02;;;;;;;44.67;22.23;;;;;;;5.62;63.76;102214.59;4914230;29;20055;-72
2023/03/04 10:59:31;;;;;;;43.45;21.83;;;;;;;5.75;63.53;102208.81;4903239;29;20040;-71
2023/03/04 11:02:00;;;;;;;43.33;22.52;;;;;;;5.98;63.35;102209.81;4902220;29;20389;-71
2023/03/04 11:04:31;;;;;;;;;;;;;;;5.76;63.68;102217.84;4904293;29;20055;-71
2023/03/04 11:06:59;;;;;;;44.88;20.40;;;;;;;5.67;64.56;102211.13;4902057;29;19923;-73
2023/03/04 11:09:29;;;;;;;42.67;19.40;;;;;;;5.84;64.18;102212.00;4922454;29;20051;-73
2023/03/04 11:12:01;;;;;;;38.67;20.33;;;;;;;5.72;64.38;102209.31;4910404;29;20063;-74
2023/03/04 11:14:39;;;;;;;53.33;20.63;;;;;;;5.75;64.67;102210.75;4903172;29;20060;-71
2023/03/04 11:17:20;;;;;;;37.95;17.67;;;;;;;6.10;64.14;102202.38;4919794;29;20048;-73
2023/03/04 11:19:53;;;;;;;36.97;18.23;;;;;;;6.21;63.28;102202.28;4919253;29;20492;-70
2023/03/04 11:22:22;;;;;;;37.40;19.00;;;;;;;6.20;63.74;102200.63;4904426;29;20047;-71
2023/03/04 11:24:56;;;;;;;36.78;18.67;;;;;;;6.22;63.35;102194.91;4900927;29;20411;-73
2023/03/04 11:27:33;;;;;;;39.17;18.92;;;;;;;5.85;64.02;102194.53;4919631;29;20044;-72